Time;durP1;ratioP1;P1;durP2;ratioP2;P2;SDS_P1;SDS_P2;PMS_P1;PMS_P2;Temp;Humidity;BMP_temperature;BMP_pressure;BME280_temperature;BME280_humidity;BME280_pressure;Samples;Min_cycle;Max_cycle;Signal;HPM_P1;HPM_P2
2023/03/13 00:00:05;;;;;;;15.40;3.53;;;11.20;99.90;;;;;;6154690;23;20414;-86
2023/03/13 00:02:32;;;;;;;10.33;2.97;;;11.20;99.90;;;;;;6153327;23;20858;-87
2023/03/13 00:05:00;;;;;;;18.67;2.80;;;11.20;99.90;;;;;;6128797;23;20445;-86
2023/03/13 00:07:26;;;;;;;23.50;4.07;;;11.20;99.90;;;;;;6154380;23;20490;-86
2023/03/13 00:09:54;;;;;;;8.00;2.80;;;11.40;99.90;;;;;;6153641;23;20410;-86
2023/03/13 00:12:21;;;;;;;9.20;3.67;;;11.40;99.90;;;;;;6127805;23;20448;-86
2023/03/13 00:14:52;;;;;;;11.47;3.57;;;11.40;99.90;;;;;;6153993;23;20922;-87
2023/03/13 00:17:19;;;;;;;23.77;3.53;;;11.40;99.90;;;;;;6127861;23;20417;-86
2023/03/13 00:19:45;;;;;;;24.13;3.80;;;11.50;99.90;;;;;;6154321;23;20434;-88
2023/03/13 00:22:12;;;;;;;15.43;3.60;;;11.60;99.90;;;;;;6127896;23;20821;-87
2023/03/13 00:24:39;;;;;;;14.53;4.23;;;11.60;99.90;;;;;;6128363;23;20428;-87
2023/03/13 00:27:06;;;;;;;12.23;3.80;;;11.60;99.90;;;;;;6154353;23;20413;-86
2023/03/13 00:29:35;;;;;;;16.83;3.70;;;11.60;99.90;;;;;;6154320;23;20465;-86
2023/03/13 00:32:03;;;;;;;19.63;2.53;;;11.70;99.90;;;;;;6153523;23;20524;-86
2023/03/13 00:34:30;;;;;;;16.00;3.67;;;11.60;99.90;;;;;;6154824;23;20815;-86
2023/03/13 00:36:58;;;;;;;14.23;3.47;;;11.60;99.90;;;;;;6126257;23;20418;-87
2023/03/13 00:39:25;;;;;;;28.33;3.40;;;11.40;99.90;;;;;;6153504;23;20464;-87
2023/03/13 00:41:52;;;;;;;19.97;2.77;;;11.20;99.90;;;;;;6153747;23;20918;-87
2023/03/13 00:44:19;;;;;;;12.00;2.90;;;11.10;99.90;;;;;;6153947;23;20976;-87
2023/03/13 00:46:47;;;;;;;21.23;4.53;;;11.00;99.90;;;;;;6154346;23;20452;-87
2023/03/13 00:49:15;;;;;;;14.03;3.90;;;10.90;99.90;;;;;;6153459;23;20440;-87
2023/03/13 00:51:42;;;;;;;15.33;4.17;;;11.00;99.90;;;;;;6155504;23;20524;-86
2023/03/13 00:54:09;;;;;;;15.00;4.10;;;11.00;99.90;;;;;;6156245;23;20394;-86
2023/03/13 00:56:37;;;;;;;11.77;4.10;;;11.00;99.90;;;;;;6154811;23;20436;-87
2023/03/13 00:59:04;;;;;;;14.20;3.00;;;11.00;99.90;;;;;;6156085;23;20436;-86
2023/03/13 01:01:33;;;;;;;18.73;4.87;;;11.00;99.90;;;;;;6129590;23;20409;-86
2023/03/13 01:04:04;;;;;;;7.93;2.60;;;10.90;99.90;;;;;;6156193;23;20413;-86
2023/03/13 01:06:34;;;;;;;13.00;3.10;;;11.00;99.90;;;;;;6156006;23;20394;-86
2023/03/13 01:09:02;;;;;;;15.70;3.83;;;11.00;99.90;;;;;;6165475;23;20457;-87
2023/03/13 01:11:30;;;;;;;19.80;3.63;;;11.00;99.90;;;;;;6155371;23;20472;-87
2023/03/13 01:14:00;;;;;;;13.77;3.63;;;11.10;99.90;;;;;;6155878;23;20418;-86
2023/03/13 01:16:29;;;;;;;16.97;4.50;;;11.00;99.90;;;;;;6155378;23;20468;-87
2023/03/13 01:18:59;;;;;;;9.50;3.90;;;11.20;99.90;;;;;;6155192;23;20462;-87
2023/03/13 01:21:27;;;;;;;8.13;3.30;;;11.20;99.90;;;;;;6155771;23;20437;-87
2023/03/13 01:23:59;;;;;;;12.53;3.27;;;11.20;99.90;;;;;;6129520;23;20418;-87
2023/03/13 01:26:26;;;;;;;24.27;3.30;;;11.20;99.90;;;;;;6155217;23;20493;-87
2023/03/13 01:28:55;;;;;;;10.70;2.23;;;11.20;99.90;;;;;;6155783;23;20434;-88
2023/03/13 01:31:25;;;;;;;8.87;3.00;;;11.40;99.90;;;;;;6155360;23;20530;-86
2023/03/13 01:33:54;;;;;;;20.53;4.13;;;11.30;99.90;;;;;;6155463;23;20445;-87
2023/03/13 01:36:22;;;;;;;11.57;3.03;;;11.40;99.90;;;;;;6155787;23;20911;-87
2023/03/13 01:38:50;;;;;;;10.50;2.13;;;11.30;99.90;;;;;;6129725;23;20882;-87
2023/03/13 01:41:21;;;;;;;8.80;3.00;;;11.30;99.90;;;;;;6155884;23;20449;-87
2023/03/13 01:43:50;;;;;;;17.07;2.70;;;11.40;99.90;;;;;;6155685;23;20457;-86
2023/03/13 01:46:18;;;;;;;14.00;3.00;;;11.40;99.90;;;;;;6155856;23;20410;-87
2023/03/13 01:48:53;;;;;;;16.23;4.13;;;11.30;99.90;;;;;;6155656;23;20438;-87
2023/03/13 01:51:23;;;;;;;7.47;2.63;;;11.10;99.90;;;;;;6154686;23;20465;-87
2023/03/13 01:53:54;;;;;;;13.83;4.37;;;11.00;99.90;;;;;;6155468;23;20449;-87
2023/03/13 01:56:31;;;;;;;12.17;5.10;;;11.10;99.90;;;;;;6155940;23;20449;-87
2023/03/13 01:58:59;;;;;;;10.60;6.47;;;10.80;99.90;;;;;;6154422;23;20437;-87
2023/03/13 02:01:28;;;;;;;17.23;11.57;;;10.80;99.90;;;;;;6128733;23;20410;-87
2023/03/13 02:03:57;;;;;;;12.10;7.37;;;10.70;99.90;;;;;;6155603;23;20414;-87
2023/03/13 02:06:27;;;;;;;31.23;29.37;;;10.60;99.90;;;;;;6154959;23;20453;-87
2023/03/13 02:08:59;;;;;;;83.53;80.07;;;10.60;99.90;;;;;;6155959;23;20470;-87
2023/03/13 02:11:37;;;;;;;95.90;91.83;;;10.50;99.90;;;;;;6154327;23;20462;-88
2023/03/13 03:52:24;;;;;;;477.80;455.47;;;11.50;99.90;;;;;;6125476;23;20434;-87
2023/03/13 03:54:54;;;;;;;502.97;477.57;;;11.50;99.90;;;;;;6125035;23;20430;-87
2023/03/13 03:57:23;;;;;;;518.63;491.03;;;11.60;99.90;;;;;;6126695;23;20474;-87
2023/03/13 03:59:51;;;;;;;509.30;483.00;;;11.60;99.90;;;;;;6154542;23;20761;-87
2023/03/13 04:02:21;;;;;;;502.87;476.47;;;11.70;99.90;;;;;;6154843;23;20409;-88
2023/03/13 04:04:48;;;;;;;485.50;462.10;;;11.70;99.90;;;;;;6153220;23;20422;-87
2023/03/13 04:07:17;;;;;;;483.40;460.60;;;11.80;99.90;;;;;;6154579;23;20418;-88
2023/03/13 04:09:48;;;;;;;482.70;459.80;;;11.80;99.90;;;;;;6155203;23;20749;-88
2023/03/13 04:12:15;;;;;;;468.40;447.10;;;11.80;99.90;;;;;;6154619;23;20508;-87
2023/03/13 04:14:44;;;;;;;469.83;448.73;;;11.90;99.90;;;;;;6155149;23;20410;-88
2023/03/13 04:17:15;;;;;;;468.40;446.90;;;12.00;99.90;;;;;;6155295;23;20457;-87
2023/03/13 04:19:43;;;;;;;443.47;424.40;;;12.00;99.90;;;;;;6154543;23;20478;-87
2023/03/13 04:22:16;;;;;;;457.23;437.30;;;12.00;99.90;;;;;;6152943;23;20727;-88
2023/03/13 04:24:46;;;;;;;434.93;416.83;;;12.10;99.90;;;;;;6155470;23;20413;-88
2023/03/13 04:27:14;;;;;;;449.93;430.03;;;12.10;99.90;;;;;;6156851;23;20398;-88
2023/03/13 04:29:42;;;;;;;443.90;424.43;;;12.10;99.90;;;;;;6156994;23;20444;-88
2023/03/13 04:32:08;;;;;;;416.57;399.00;;;12.20;99.90;;;;;;6165966;23;20496;-88
2023/03/13 04:34:35;;;;;;;408.83;392.07;;;12.20;99.90;;;;;;6166766;23;20413;-87
2023/03/13 04:37:05;;;;;;;402.47;386.07;;;12.20;99.90;;;;;;6155097;23;20472;-89
2023/03/13 04:39:32;;;;;;;400.63;384.13;;;12.20;99.90;;;;;;6156802;23;20813;-87
2023/03/13 04:41:59;;;;;;;394.87;379.00;;;12.20;99.90;;;;;;6156461;23;20777;-87
2023/03/13 04:44:27;;;;;;;373.00;358.07;;;12.20;99.90;;;;;;6156790;23;20481;-87
2023/03/13 04:46:54;;;;;;;361.40;346.80;;;12.30;99.90;;;;;;6155884;23;20424;-88
2023/03/13 04:49:22;;;;;;;347.70;334.20;;;12.50;99.90;;;;;;6130322;23;20490;-88
2023/03/13 04:51:49;;;;;;;332.63;319.57;;;12.40;99.90;;;;;;6165757;23;20847;-88
2023/03/13 04:54:16;;;;;;;341.03;327.93;;;12.50;99.90;;;;;;6156218;23;20409;-88
2023/03/13 04:56:45;;;;;;;301.27;290.07;;;12.60;99.90;;;;;;6131362;23;20413;-88
2023/03/13 04:59:13;;;;;;;328.80;316.40;;;12.60;99.90;;;;;;6157023;23;20433;-87
2023/03/13 05:01:43;;;;;;;280.53;270.30;;;12.70;99.90;;;;;;6156676;23;20410;-90
2023/03/13 05:04:10;;;;;;;286.20;275.90;;;12.80;99.90;;;;;;6156600;23;20502;-88
2023/03/13 05:06:39;;;;;;;270.40;260.80;;;12.70;99.90;;;;;;6155611;23;20452;-87
2023/03/13 05:09:06;;;;;;;252.23;243.03;;;12.80;99.90;;;;;;6156015;23;20461;-89
2023/03/13 05:11:34;;;;;;;245.60;237.20;;;12.80;99.90;;;;;;6155273;23;20434;-88
2023/03/13 05:14:01;;;;;;;211.40;204.33;;;12.80;99.90;;;;;;6156354;23;20449;-88
2023/03/13 05:16:28;;;;;;;226.53;218.97;;;12.90;99.90;;;;;;6156679;23;20441;-88
2023/03/13 05:18:56;;;;;;;188.17;181.80;;;12.80;99.90;;;;;;6165255;23;20430;-88
2023/03/13 05:21:24;;;;;;;168.63;163.03;;;12.90;99.90;;;;;;6154346;23;20449;-87
2023/03/13 05:23:51;;;;;;;170.73;164.93;;;12.90;99.90;;;;;;6154730;23;20421;-87
2023/03/13 05:26:20;;;;;;;164.27;158.73;;;12.90;99.90;;;;;;6155577;23;20414;-88
2023/03/13 05:28:47;;;;;;;122.47;118.37;;;12.90;99.90;;;;;;6156700;23;20437;-88
2023/03/13 05:31:15;;;;;;;112.60;108.80;;;13.00;99.90;;;;;;6156149;23;20977;-86
2023/03/13 05:33:46;;;;;;;121.90;117.87;;;13.00;99.90;;;;;;6156999;23;20442;-87
2023/03/13 05:44:12;;;;;;;86.83;83.87;;;13.00;99.90;;;;;;6136234;23;20444;-86
2023/03/13 05:47:00;;;;;;;84.30;81.10;;;13.10;99.90;;;;;;6126069;23;20446;-88
2023/03/13 05:49:32;;;;;;;74.30;71.07;;;13.00;99.90;;;;;;6153154;23;20513;-87
2023/03/13 05:52:01;;;;;;;55.23;53.03;;;13.10;99.90;;;;;;6155293;23;20748;-87
2023/03/13 05:54:29;;;;;;;44.57;42.67;;;13.20;99.90;;;;;;6154910;23;20414;-89
2023/03/13 05:56:56;;;;;;;51.17;49.17;;;13.20;99.90;;;;;;6155909;23;20494;-89
2023/03/13 05:59:23;;;;;;;54.53;52.17;;;13.20;99.90;;;;;;6155648;23;20789;-87
2023/03/13 08:35:28;;;;;;;8.27;3.10;;;14.50;99.90;;;;;;6122949;23;20513;-78
2023/03/13 08:37:55;;;;;;;9.73;2.90;;;14.60;99.90;;;;;;6133527;23;20430;-77
2023/03/13 08:40:23;;;;;;;7.00;3.03;;;14.50;99.90;;;;;;6153509;23;20414;-78
2023/03/13 08:42:50;;;;;;;9.13;2.90;;;14.60;99.90;;;;;;6153121;23;20406;-78
2023/03/13 08:45:20;;;;;;;10.80;3.10;;;14.70;99.90;;;;;;6153439;23;20956;-78
2023/03/13 08:47:47;;;;;;;8.70;3.17;;;14.90;99.90;;;;;;6163053;23;20422;-78
2023/03/13 08:50:16;;;;;;;7.47;3.27;;;14.90;99.90;;;;;;6153344;23;21002;-77
2023/03/13 08:52:45;;;;;;;6.57;2.23;;;15.00;99.90;;;;;;6153128;23;20991;-78
2023/03/13 08:55:15;;;;;;;9.17;4.80;;;14.90;99.90;;;;;;6152784;23;20415;-78
2023/03/13 08:57:42;;;;;;;8.67;2.37;;;14.80;99.90;;;;;;6154124;23;20441;-78
2023/03/13 09:00:13;;;;;;;9.50;3.70;;;14.80;99.90;;;;;;6152384;23;20498;-79
2023/03/13 09:02:41;;;;;;;9.90;3.07;;;14.80;99.90;;;;;;6152513;23;20730;-79
2023/03/13 09:05:11;;;;;;;6.77;2.10;;;14.90;99.90;;;;;;6153877;23;20421;-79
2023/03/13 09:07:38;;;;;;;8.60;3.20;;;15.00;99.90;;;;;;6153028;23;20435;-78
2023/03/13 09:10:08;;;;;;;7.73;2.30;;;15.10;99.90;;;;;;6154155;23;20414;-79
2023/03/13 09:12:35;;;;;;;5.70;2.50;;;15.10;99.90;;;;;;6155598;23;20438;-79
2023/03/13 09:15:01;;;;;;;9.47;3.20;;;15.00;99.90;;;;;;6156186;23;20511;-79
2023/03/13 09:17:30;;;;;;;6.20;3.27;;;15.10;99.90;;;;;;6155324;23;20910;-79
2023/03/13 09:19:56;;;;;;;8.60;3.23;;;15.00;99.90;;;;;;6155570;23;20497;-79
2023/03/13 09:22:23;;;;;;;13.27;2.70;;;15.20;99.90;;;;;;6155629;23;20494;-79
2023/03/13 09:24:50;;;;;;;6.97;2.40;;;15.40;99.90;;;;;;6155530;23;20969;-79
2023/03/13 09:27:22;;;;;;;5.30;2.47;;;15.40;99.90;;;;;;6165187;23;20418;-79
2023/03/13 09:29:49;;;;;;;7.43;2.60;;;15.50;99.90;;;;;;6155544;23;20415;-79
2023/03/13 09:32:19;;;;;;;5.20;2.40;;;15.70;99.90;;;;;;6154983;23;21012;-79
2023/03/13 09:34:46;;;;;;;8.80;3.00;;;15.70;99.90;;;;;;6165045;23;20425;-79
2023/03/13 09:37:13;;;;;;;9.33;2.87;;;15.80;99.90;;;;;;6155452;23;20819;-79
2023/03/13 09:39:39;;;;;;;6.00;2.60;;;15.70;99.90;;;;;;6155136;23;20453;-79
2023/03/13 09:42:13;;;;;;;11.73;2.57;;;15.70;99.90;;;;;;6154851;23;20423;-78
2023/03/13 09:44:46;;;;;;;6.83;2.50;;;15.60;99.90;;;;;;6155048;23;20497;-79
2023/03/13 09:47:20;;;;;;;8.03;2.50;;;15.60;99.90;;;;;;6128954;23;20418;-78
2023/03/13 09:49:53;;;;;;;7.27;2.37;;;15.90;99.90;;;;;;6154926;23;20481;-79
2023/03/13 09:52:23;;;;;;;5.23;2.00;;;16.50;99.90;;;;;;6164123;23;20437;-79
2023/03/13 09:54:55;;;;;;;6.03;1.80;;;16.80;99.90;;;;;;6154826;23;20731;-79
2023/03/13 09:57:31;;;;;;;6.53;2.37;;;16.60;99.90;;;;;;6155315;23;20402;-79
2023/03/13 10:00:06;;;;;;;5.13;1.73;;;16.70;99.90;;;;;;6154692;23;20481;-79
2023/03/13 10:02:35;;;;;;;5.20;1.90;;;17.00;99.90;;;;;;6165277;23;20403;-79
2023/03/13 10:05:18;;;;;;;8.90;2.17;;;16.80;99.90;;;;;;6154993;23;20414;-88
2023/03/13 10:07:47;;;;;;;8.53;2.23;;;17.10;99.90;;;;;;6153295;23;20515;-87
2023/03/13 10:10:19;;;;;;;5.80;2.00;;;17.10;99.90;;;;;;6128490;23;20842;-87
2023/03/13 10:12:48;;;;;;;6.53;1.90;;;17.20;99.90;;;;;;6155489;23;20646;-86
2023/03/13 10:15:44;;;;;;;7.20;1.87;;;16.90;99.90;;;;;;6155363;23;20444;-87
2023/03/13 10:18:17;;;;;;;5.40;1.60;;;17.00;99.90;;;;;;6154475;23;20445;-88
2023/03/13 10:20:47;;;;;;;4.50;1.60;;;17.80;99.90;;;;;;6128740;23;20437;-87
2023/03/13 10:23:18;;;;;;;6.40;1.80;;;18.10;99.90;;;;;;6154717;23;20410;-87
2023/03/13 10:25:45;;;;;;;5.20;1.73;;;18.20;99.90;;;;;;6128700;23;20406;-91
2023/03/13 10:28:21;;;;;;;7.37;1.77;;;18.40;99.90;;;;;;6154578;23;20435;-87
2023/03/13 10:30:53;;;;;;;5.30;1.90;;;18.10;99.90;;;;;;6153961;23;21048;-87
2023/03/13 10:33:25;;;;;;;7.03;1.50;;;17.80;99.90;;;;;;6154989;23;20483;-89
2023/03/13 10:36:16;;;;;;;6.00;1.67;;;18.10;99.90;;;;;;6125523;23;20414;-88
2023/03/13 10:38:49;;;;;;;5.20;1.87;;;18.20;99.90;;;;;;6155706;23;20514;-89
2023/03/13 10:41:37;;;;;;;14.90;1.90;;;18.20;99.90;;;;;;6154014;23;20401;-90
2023/03/13 10:44:07;;;;;;;5.23;1.73;;;18.10;99.90;;;;;;6153717;23;20800;-88
2023/03/13 10:46:40;;;;;;;6.33;2.10;;;18.00;99.90;;;;;;6136107;23;20410;-88
2023/03/13 10:49:15;;;;;;;6.40;1.93;;;18.10;99.90;;;;;;6154866;23;20435;-87
2023/03/13 10:51:48;;;;;;;5.20;1.97;;;18.10;99.90;;;;;;6154372;23;20732;-89
2023/03/13 10:54:17;;;;;;;5.27;1.90;;;18.10;99.90;;;;;;6154054;23;20761;-88
2023/03/13 10:56:46;;;;;;;6.43;2.13;;;18.20;99.90;;;;;;6154355;23;20991;-89
2023/03/13 10:59:26;;;;;;;4.93;1.60;;;18.20;99.90;;;;;;6154049;23;20434;-87
2023/03/13 11:02:01;;;;;;;4.77;1.47;;;17.90;99.90;;;;;;6153775;23;20399;-88
2023/03/13 11:04:41;;;;;;;6.03;1.53;;;17.60;99.90;;;;;;6128558;23;20414;-88
2023/03/13 11:07:16;;;;;;;6.13;1.53;;;17.50;99.90;;;;;;6149773;23;20423;-78
2023/03/13 11:09:58;;;;;;;4.67;1.77;;;17.30;99.90;;;;;;6154290;23;20482;-79
2023/03/13 11:12:25;;;;;;;6.17;2.23;;;17.10;99.90;;;;;;6154308;23;20466;-78
2023/03/13 11:14:57;;;;;;;6.23;1.90;;;17.30;99.90;;;;;;6154669;23;20421;-78
2023/03/13 11:17:34;;;;;;;8.27;1.90;;;18.10;99.90;;;;;;6153632;23;20399;-78
2023/03/13 11:20:10;;;;;;;4.57;1.50;;;17.90;99.90;;;;;;6153902;23;20420;-78
2023/03/13 11:22:48;;;;;;;5.33;1.40;;;17.50;99.90;;;;;;6129674;23;20479;-79
2023/03/13 11:25:24;;;;;;;4.37;1.30;;;17.30;99.90;;;;;;6164468;23;20436;-78
2023/03/13 11:28:07;;;;;;;6.93;1.93;;;17.10;99.90;;;;;;6154231;23;20513;-77
2023/03/13 11:30:49;;;;;;;5.20;1.30;;;17.60;99.90;;;;;;6154405;23;20488;-79
2023/03/13 11:33:28;;;;;;;5.57;1.93;;;17.40;99.90;;;;;;6154585;23;20435;-78
2023/03/13 11:36:01;;;;;;;6.43;1.30;;;17.50;99.90;;;;;;6128505;23;20835;-78
2023/03/13 11:38:35;;;;;;;5.27;1.40;;;17.40;99.90;;;;;;6154662;23;20443;-78
2023/03/13 11:41:21;;;;;;;4.67;1.37;;;17.40;99.90;;;;;;6154511;23;20410;-79
2023/03/13 11:44:04;;;;;;;4.43;1.27;;;17.40;99.90;;;;;;6152678;23;20748;-77
2023/03/13 11:49:48;;;;;;;4.60;1.77;;;18.10;99.90;;;;;;6152612;23;20452;-79
2023/03/13 11:52:34;;;;;;;4.43;1.20;;;18.80;99.90;;;;;;6068144;23;20724;-81
2023/03/13 11:55:22;;;;;;;5.23;1.13;;;19.20;99.90;;;;;;6163588;23;20491;-79
2023/03/13 11:57:57;;;;;;;6.70;1.20;;;19.50;99.90;;;;;;6137783;23;20421;-79
2023/03/13 12:00:31;;;;;;;6.97;1.20;;;19.70;99.90;;;;;;6153744;23;20421;-79
2023/03/13 12:03:06;;;;;;;5.63;1.27;;;19.70;99.90;;;;;;6154375;23;20879;-79
2023/03/13 12:05:38;;;;;;;6.18;1.60;;;18.90;99.90;;;;;;6153228;23;20492;-79
2023/03/13 12:08:12;;;;;;;3.90;1.07;;;18.70;99.90;;;;;;6153880;23;20194;-79
2023/03/13 12:10:44;;;;;;;4.53;1.40;;;18.20;99.90;;;;;;6154149;23;20398;-79
2023/03/13 12:13:16;;;;;;;4.20;1.17;;;18.00;99.90;;;;;;6153567;23;20441;-79
2023/03/13 12:15:47;;;;;;;3.80;0.80;;;18.10;99.90;;;;;;6154486;23;20499;-79
2023/03/13 12:18:19;;;;;;;4.77;1.30;;;17.90;99.90;;;;;;6154208;23;20440;-79
2023/03/13 12:20:54;;;;;;;5.23;1.20;;;18.50;99.90;;;;;;6153641;23;20482;-79
2023/03/13 12:23:28;;;;;;;4.60;1.20;;;18.70;99.90;;;;;;6154306;23;20402;-80
2023/03/13 12:26:00;;;;;;;3.80;1.00;;;19.50;99.90;;;;;;6154436;23;20401;-79
2023/03/13 12:28:34;;;;;;;4.10;1.10;;;19.60;99.90;;;;;;6153644;23;20487;-79
2023/03/13 12:31:09;;;;;;;4.53;1.00;;;19.70;99.90;;;;;;6153536;23;20480;-80
2023/03/13 12:33:41;;;;;;;5.63;1.17;;;19.40;99.90;;;;;;6127701;23;20499;-79
2023/03/13 12:36:13;;;;;;;5.70;1.27;;;18.90;99.90;;;;;;6137782;23;20439;-80
2023/03/13 12:38:49;;;;;;;4.50;1.30;;;19.20;98.40;;;;;;6154614;23;20436;-79
2023/03/13 12:41:23;;;;;;;4.73;1.23;;;19.10;99.90;;;;;;6154042;23;20425;-79
2023/03/13 12:43:52;;;;;;;5.23;1.20;;;18.70;99.90;;;;;;6154027;23;20401;-79
2023/03/13 12:46:41;;;;;;;5.47;2.07;;;18.40;99.90;;;;;;6155665;23;20525;-79
2023/03/13 12:49:47;;;;;;;4.60;1.10;;;18.10;99.90;;;;;;6165021;23;20505;-79
2023/03/13 12:52:36;;;;;;;4.93;1.27;;;18.70;99.90;;;;;;6156036;23;20454;-79
2023/03/13 12:55:33;;;;;;;5.03;1.20;;;18.90;99.90;;;;;;6165783;23;20438;-79
2023/03/13 12:58:38;;;;;;;4.83;1.23;;;18.60;99.80;;;;;;6156392;23;20452;-79
2023/03/13 13:01:07;;;;;;;4.43;1.20;;;18.80;99.90;;;;;;6133063;23;20470;-80
2023/03/13 13:03:37;;;;;;;5.43;1.60;;;18.80;99.90;;;;;;6139934;23;20962;-79
2023/03/13 13:06:07;;;;;;;4.10;1.07;;;18.90;98.50;;;;;;6156300;23;20614;-80
2023/03/13 13:08:42;;;;;;;6.07;1.37;;;18.70;98.30;;;;;;6156035;23;20430;-79
2023/03/13 13:11:57;;;;;;;5.23;1.40;;;18.60;98.80;;;;;;6165589;23;20493;-79
2023/03/13 13:14:57;;;;;;;4.97;1.30;;;18.60;99.40;;;;;;6155986;23;20497;-79
2023/03/13 13:17:39;;;;;;;3.70;0.83;;;19.60;97.70;;;;;;6155530;23;20403;-80
2023/03/13 13:20:53;;;;;;;5.00;1.30;;;19.90;95.10;;;;;;6129800;23;20482;-79
2023/03/13 13:23:42;;;;;;;4.50;1.20;;;20.20;95.20;;;;;;6036737;23;20476;-80
2023/03/13 13:26:42;;;;;;;4.40;1.40;;;20.50;95.30;;;;;;6155816;23;20401;-79
2023/03/13 13:29:57;;;;;;;4.70;1.23;;;20.30;95.20;;;;;;6143107;23;21016;-79
2023/03/13 13:32:43;;;;;;;5.17;1.20;;;20.00;95.10;;;;;;6155689;23;20476;-79
2023/03/13 13:35:29;;;;;;;4.53;1.20;;;19.20;95.00;;;;;;6155782;23;20429;-78
2023/03/13 13:38:39;;;;;;;3.97;1.07;;;19.40;96.50;;;;;;6155347;23;20429;-79
2023/03/13 13:41:40;;;;;;;4.80;1.50;;;19.20;95.50;;;;;;6155105;23;20403;-79
2023/03/13 13:44:28;;;;;;;4.20;1.30;;;18.70;96.70;;;;;;6155789;23;20747;-79
2023/03/13 13:46:57;;;;;;;4.70;1.23;;;19.00;96.90;;;;;;6151358;23;20483;-79
2023/03/13 13:49:34;;;;;;;4.83;1.53;;;18.80;96.80;;;;;;6128979;23;20211;-79
2023/03/13 13:52:38;;;;;;;5.40;1.37;;;18.60;97.90;;;;;;6155450;23;20495;-78
2023/03/13 13:55:41;;;;;;;4.33;1.10;;;18.70;97.20;;;;;;6129263;23;20777;-79
2023/03/13 13:58:13;;;;;;;5.37;1.70;;;18.40;97.80;;;;;;6155318;23;20442;-79
2023/03/13 14:00:46;;;;;;;4.80;1.47;;;18.50;98.60;;;;;;6155589;23;20404;-78
2023/03/13 14:03:22;;;;;;;5.73;1.17;;;18.50;99.20;;;;;;6155557;23;20404;-79
2023/03/13 14:05:53;;;;;;;4.13;0.90;;;18.60;97.90;;;;;;6153823;23;20425;-79
2023/03/13 14:08:24;;;;;;;4.77;1.60;;;18.80;98.00;;;;;;6154145;23;20434;-79
2023/03/13 14:11:04;;;;;;;4.10;1.10;;;19.40;98.20;;;;;;6153133;23;20649;-79
2023/03/13 14:13:31;;;;;;;4.93;1.60;;;19.40;97.50;;;;;;6153924;23;20452;-79
2023/03/13 14:16:20;;;;;;;4.00;0.93;;;19.20;97.70;;;;;;6154858;23;20429;-79
2023/03/13 14:18:48;;;;;;;4.90;1.27;;;18.90;96.90;;;;;;6154703;23;20441;-78
2023/03/13 14:21:22;;;;;;;4.60;1.20;;;19.10;98.40;;;;;;6154922;23;20417;-78
2023/03/13 14:23:49;;;;;;;4.17;1.03;;;18.90;97.00;;;;;;6154587;23;20746;-78
2023/03/13 14:26:18;;;;;;;4.40;1.20;;;19.00;97.30;;;;;;6154807;23;20422;-79
2023/03/13 14:28:47;;;;;;;4.70;1.37;;;19.20;97.40;;;;;;6154320;23;20439;-79
2023/03/13 14:31:28;;;;;;;4.40;1.20;;;19.20;97.30;;;;;;6154638;23;20417;-79
2023/03/13 16:51:11;;;;;;;5.23;2.00;;;14.70;99.60;;;;;;6154608;23;20545;-83
2023/03/13 16:53:38;;;;;;;7.80;1.93;;;14.60;99.90;;;;;;6125005;23;20962;-83
2023/03/13 16:56:23;;;;;;;6.30;2.30;;;14.70;99.80;;;;;;6124656;23;20418;-82
2023/03/13 17:22:12;;;;;;;6.43;1.80;;;14.00;99.90;;;;;;6137840;23;20438;-82
2023/03/13 17:24:39;;;;;;;5.53;1.57;;;13.90;99.90;;;;;;6134567;23;20429;-83
2023/03/13 17:27:10;;;;;;;8.87;2.10;;;13.90;99.90;;;;;;6124884;23;20422;-83
2023/03/13 17:29:37;;;;;;;15.20;4.73;;;13.90;99.90;;;;;;6104572;23;20419;-82
2023/03/13 17:32:12;;;;;;;9.20;4.80;;;13.90;99.90;;;;;;6095423;23;20414;-83
2023/03/13 18:51:10;;;;;;;7.23;1.90;;;13.00;99.90;;;;;;6165577;23;20421;-83
2023/03/13 18:53:41;;;;;;;6.73;2.23;;;13.10;99.90;;;;;;6066156;23;20463;-84
2023/03/13 18:56:16;;;;;;;7.53;1.77;;;13.00;99.90;;;;;;6067448;23;20401;-84
2023/03/13 18:58:42;;;;;;;10.37;2.37;;;13.00;99.90;;;;;;6067169;23;20495;-84
2023/03/13 19:01:14;;;;;;;7.63;2.67;;;13.10;99.90;;;;;;6065145;23;20459;-84
2023/03/13 19:03:41;;;;;;;10.67;2.23;;;13.10;99.90;;;;;;6065498;23;20804;-83
2023/03/13 19:06:21;;;;;;;6.80;1.60;;;13.20;99.90;;;;;;6042074;23;20723;-84
2023/03/13 19:08:52;;;;;;;6.60;2.23;;;13.10;99.90;;;;;;6066385;23;20833;-83
2023/03/13 19:11:20;;;;;;;10.97;2.20;;;13.10;99.90;;;;;;6066642;23;20455;-83
2023/03/13 19:14:12;;;;;;;5.53;2.10;;;13.10;99.90;;;;;;6066592;23;20504;-84
2023/03/13 19:16:45;;;;;;;6.27;2.37;;;13.00;99.90;;;;;;6066393;23;20411;-83
2023/03/13 19:19:19;;;;;;;5.70;1.93;;;13.00;99.90;;;;;;6066492;23;20539;-84
2023/03/13 19:21:46;;;;;;;13.43;3.07;;;13.00;99.90;;;;;;6066849;23;20405;-83
2023/03/13 19:24:15;;;;;;;10.23;2.33;;;13.00;99.90;;;;;;6065106;23;20416;-84
2023/03/13 19:26:57;;;;;;;7.53;2.10;;;12.80;99.90;;;;;;6067118;23;20468;-84
2023/03/13 19:29:28;;;;;;;6.20;1.87;;;12.70;99.90;;;;;;6066855;23;20468;-83
2023/03/13 19:31:57;;;;;;;13.47;3.63;;;12.70;99.90;;;;;;6066623;23;20409;-83
2023/03/13 19:34:27;;;;;;;6.00;2.30;;;12.50;99.90;;;;;;6076294;23;21092;-83
2023/03/13 19:37:09;;;;;;;6.37;2.67;;;12.50;99.90;;;;;;6066871;23;20456;-83
2023/03/13 19:39:46;;;;;;;6.50;2.20;;;12.30;99.90;;;;;;6067402;23;20742;-84
2023/03/13 19:42:13;;;;;;;12.70;3.10;;;12.30;99.90;;;;;;6067369;23;20800;-83
2023/03/13 19:44:43;;;;;;;12.97;2.50;;;12.10;99.90;;;;;;6042020;23;20505;-84
2023/03/13 19:47:13;;;;;;;8.77;2.27;;;12.10;99.90;;;;;;6065913;23;20416;-83
2023/03/13 19:49:40;;;;;;;7.17;2.50;;;12.10;99.90;;;;;;6067058;23;20525;-84
2023/03/13 19:52:09;;;;;;;4.97;2.00;;;12.10;99.90;;;;;;6082272;23;20773;-83
2023/03/13 19:54:36;;;;;;;6.13;2.63;;;12.10;99.90;;;;;;6095597;23;20518;-84
2023/03/13 19:57:06;;;;;;;7.33;2.00;;;12.10;99.90;;;;;;6095812;23;20467;-83
2023/03/13 19:59:38;;;;;;;10.53;2.80;;;11.90;99.90;;;;;;6095851;23;20435;-84
2023/03/13 20:02:09;;;;;;;6.37;2.63;;;11.90;99.90;;;;;;6095533;23;20407;-83
2023/03/13 20:04:53;;;;;;;6.70;2.87;;;11.90;99.90;;;;;;6096140;23;20475;-84
2023/03/13 20:07:20;;;;;;;7.37;2.93;;;11.80;99.90;;;;;;6095493;23;20399;-83
2023/03/13 20:09:50;;;;;;;8.23;2.70;;;11.60;99.90;;;;;;6094666;23;20447;-83
2023/03/13 20:12:22;;;;;;;7.70;2.80;;;11.60;99.90;;;;;;6070434;23;20455;-83
2023/03/13 20:14:49;;;;;;;7.47;3.20;;;11.50;99.90;;;;;;6095862;23;20467;-83
2023/03/13 20:17:17;;;;;;;9.60;3.53;;;11.50;99.90;;;;;;6095341;23;20454;-84
2023/03/13 20:19:47;;;;;;;8.70;2.70;;;11.50;99.90;;;;;;6095456;23;20470;-84
2023/03/13 20:22:22;;;;;;;5.60;2.60;;;11.50;99.90;;;;;;6095079;23;20416;-83
2023/03/13 20:24:49;;;;;;;5.00;2.27;;;11.60;99.90;;;;;;6105678;23;20418;-84
2023/03/13 20:27:16;;;;;;;6.23;2.40;;;11.60;99.90;;;;;;6093828;23;20463;-83
2023/03/13 20:29:44;;;;;;;8.13;2.73;;;11.50;99.90;;;;;;6095600;23;20454;-84
2023/03/13 20:32:26;;;;;;;4.77;2.67;;;11.40;99.90;;;;;;6093584;23;20420;-83
2023/03/13 20:34:56;;;;;;;6.90;2.77;;;11.30;99.90;;;;;;6108880;23;20482;-79
2023/03/13 20:37:23;;;;;;;11.33;3.63;;;11.30;99.90;;;;;;6101182;23;20422;-79
2023/03/13 20:39:51;;;;;;;9.10;3.43;;;11.20;99.90;;;;;;6154146;23;20410;-79
2023/03/13 20:42:21;;;;;;;7.57;3.67;;;11.10;99.90;;;;;;6154088;23;20410;-78
2023/03/13 20:44:50;;;;;;;7.77;3.17;;;11.00;99.90;;;;;;6153008;23;20423;-78
2023/03/13 20:47:18;;;;;;;13.00;4.00;;;11.00;99.90;;;;;;6153543;23;20410;-78
2023/03/13 20:49:46;;;;;;;9.37;3.47;;;11.10;99.90;;;;;;6154485;23;20413;-78
2023/03/13 20:52:14;;;;;;;6.93;3.43;;;11.10;99.90;;;;;;6153995;23;20801;-78
2023/03/13 20:54:41;;;;;;;6.07;3.10;;;11.10;99.90;;;;;;6154199;23;20434;-78
2023/03/13 20:57:08;;;;;;;9.73;4.00;;;11.00;99.90;;;;;;6153942;23;20450;-78
2023/03/13 20:59:35;;;;;;;7.33;3.17;;;10.90;99.90;;;;;;6153700;23;20445;-78
2023/03/13 21:02:05;;;;;;;12.60;4.00;;;11.00;99.90;;;;;;6153529;23;20414;-78
2023/03/13 21:04:32;;;;;;;6.37;3.13;;;11.00;99.90;;;;;;6153988;23;20500;-78
2023/03/13 21:07:03;;;;;;;7.43;4.07;;;10.90;99.90;;;;;;6153233;23;20496;-78
2023/03/13 21:09:34;;;;;;;6.83;3.27;;;10.90;99.90;;;;;;6138994;23;20437;-78
2023/03/13 21:12:04;;;;;;;5.53;2.83;;;10.90;99.90;;;;;;6155105;23;20398;-79
2023/03/13 21:14:32;;;;;;;8.17;3.07;;;11.00;99.90;;;;;;6155878;23;20509;-79
2023/03/13 21:17:01;;;;;;;15.03;3.80;;;11.00;99.90;;;;;;6156349;23;20416;-79
2023/03/13 21:19:43;;;;;;;10.20;3.70;;;11.00;99.90;;;;;;6155280;23;20433;-78
2023/03/13 21:22:11;;;;;;;13.50;4.53;;;10.80;99.90;;;;;;6155826;23;20440;-78
2023/03/13 21:24:39;;;;;;;5.20;3.70;;;10.70;99.90;;;;;;6156286;23;20453;-78